Time;durP1;ratioP1;P1;durP2;ratioP2;P2;SDS_P1;SDS_P2;PMS_P1;PMS_P2;Temp;Humidity;BMP_temperature;BMP_pressure;BME280_temperature;BME280_humidity;BME280_pressure;Samples;Min_cycle;Max_cycle;Signal;HPM_P1;HPM_P2
2022/09/13 00:00:31;;;;;;;9.47;6.70;;;;;;;18.81;76.27;100900.69;5255285;28;20025;-73
2022/09/13 00:03:03;;;;;;;8.17;5.13;;;;;;;18.87;75.94;100915.16;5255320;28;20017;-73
2022/09/13 00:05:36;;;;;;;12.03;5.27;;;;;;;18.73;76.15;100909.34;5255709;28;20025;-73
2022/09/13 00:08:08;;;;;;;10.10;5.37;;;;;;;18.85;76.36;100904.69;5254397;28;20415;-74
2022/09/13 00:10:42;;;;;;;10.00;4.97;;;;;;;18.81;76.37;100905.16;5255265;28;20100;-73
2022/09/13 00:13:14;;;;;;;6.88;4.90;;;;;;;18.78;76.68;100906.25;5255295;28;20079;-73
2022/09/13 00:15:48;;;;;;;9.23;5.30;;;;;;;18.64;77.39;100898.78;5255374;28;20061;-73
2022/09/13 00:18:19;;;;;;;11.32;5.65;;;;;;;18.53;77.59;100916.53;5254218;28;20479;-73
2022/09/13 00:20:51;;;;;;;8.03;5.23;;;;;;;18.74;76.12;100895.13;5255539;28;20029;-73
2022/09/13 00:23:22;;;;;;;10.80;5.20;;;;;;;18.61;76.67;100884.81;5254280;28;20053;-73
2022/09/13 00:26:02;;;;;;;10.73;4.80;;;;;;;18.84;76.22;100894.22;5253616;28;20071;-73
2022/09/13 00:28:34;;;;;;;9.77;5.53;;;;;;;18.66;76.42;100891.53;5254689;28;20029;-72
2022/09/13 00:31:07;;;;;;;11.93;5.87;;;;;;;18.59;76.88;100886.78;5253931;28;20032;-73
2022/09/13 00:33:38;;;;;;;12.03;4.90;;;;;;;18.59;77.48;100892.06;5255019;28;20035;-73
2022/09/13 00:36:11;;;;;;;11.67;5.30;;;;;;;18.70;77.30;100892.88;5255031;28;20025;-73
2022/09/13 00:38:43;;;;;;;11.17;5.10;;;;;;;18.64;76.70;100872.25;5253733;28;20025;-73
2022/09/13 00:41:16;;;;;;;10.83;4.80;;;;;;;18.65;77.18;100885.38;5254720;28;20028;-73
2022/09/13 00:43:53;;;;;;;11.07;4.93;;;;;;;18.64;77.08;100874.91;5254179;28;21399;-73
2022/09/13 00:46:38;;;;;;;6.87;4.50;;;;;;;18.70;77.30;100884.94;5254313;28;20024;-73
2022/09/13 00:49:28;;;;;;;9.07;4.67;;;;;;;18.75;76.59;100880.03;5255449;28;20036;-73
2022/09/13 00:52:04;;;;;;;8.70;5.50;;;;;;;18.57;77.67;100872.00;5254254;28;20037;-73
2022/09/13 00:54:42;;;;;;;7.97;4.63;;;;;;;18.77;76.11;100872.75;5252238;28;20040;-73
2022/09/13 00:57:17;;;;;;;12.60;5.07;;;;;;;18.57;77.64;100867.50;5254057;28;20029;-73
2022/09/13 00:59:59;;;;;;;9.87;5.73;;;;;;;18.48;78.28;100857.78;5254538;28;20745;-73
2022/09/13 01:02:31;;;;;;;10.57;5.60;;;;;;;18.51;77.78;100862.78;5241737;28;20025;-73
2022/09/13 01:05:02;;;;;;;8.83;5.27;;;;;;;18.53;77.47;100862.66;5272745;22;20107;-73
2022/09/13 01:07:34;;;;;;;7.37;5.37;;;;;;;18.40;77.66;100849.72;5239019;28;20057;-73
2022/09/13 01:10:06;;;;;;;7.43;5.17;;;;;;;18.30;78.33;100857.69;5230151;28;20048;-73
2022/09/13 01:12:58;;;;;;;7.77;5.40;;;;;;;18.66;76.22;100870.31;5230867;28;20061;-73
2022/09/13 01:15:29;;;;;;;7.07;4.77;;;;;;;18.53;76.97;100871.44;5231824;28;20029;-73
2022/09/13 01:18:01;;;;;;;13.80;5.87;;;;;;;18.61;77.06;100868.91;5232201;28;20045;-73
2022/09/13 01:21:14;;;;;;;9.20;5.90;;;;;;;18.68;76.02;100855.91;5230790;28;20123;-73
2022/09/13 01:24:10;;;;;;;10.87;6.33;;;;;;;18.59;76.84;100860.25;5230782;28;20052;-73
2022/09/13 01:27:10;;;;;;;7.70;5.63;;;;;;;18.76;75.84;100855.19;5230731;28;20427;-73
2022/09/13 01:30:14;;;;;;;8.80;5.10;;;;;;;18.78;75.06;100858.50;5231938;28;20033;-73
2022/09/13 01:33:02;;;;;;;10.95;4.88;;;;;;;18.62;76.23;100854.66;5232235;28;20163;-73
2022/09/13 01:35:48;;;;;;;6.83;5.20;;;;;;;18.62;76.02;100853.84;5231117;28;20026;-73
2022/09/13 01:38:29;;;;;;;5.70;5.03;;;;;;;18.28;78.84;100849.88;5230485;28;20033;-73
2022/09/13 01:41:41;;;;;;;5.63;4.63;;;;;;;18.48;78.48;100849.84;5231906;28;20064;-73
2022/09/13 01:44:21;;;;;;;8.87;4.83;;;;;;;18.57;77.07;100848.94;5232037;28;20589;-73
2022/09/13 01:47:22;;;;;;;9.03;4.97;;;;;;;18.59;76.69;100854.94;5230181;28;20021;-73
2022/09/13 01:50:22;;;;;;;8.77;5.47;;;;;;;18.55;76.95;100842.97;5231420;28;20394;-73
2022/09/13 01:53:08;;;;;;;5.43;4.73;;;;;;;18.46;77.76;100839.38;5231160;28;20060;-73
2022/09/13 01:56:01;;;;;;;5.87;5.13;;;;;;;18.46;77.74;100833.22;5231590;28;20075;-73
2022/09/13 01:58:47;;;;;;;9.70;4.87;;;;;;;18.33;81.32;100833.53;5230916;28;20025;-72
2022/09/13 02:01:40;;;;;;;9.43;5.23;;;;;;;18.62;79.17;100838.75;5231217;28;20109;-73
2022/09/13 02:04:18;;;;;;;7.37;4.97;;;;;;;18.48;80.61;100837.38;5231380;28;20033;-73
2022/09/13 02:07:02;;;;;;;5.53;5.03;;;;;;;18.53;81.30;100841.44;5231151;28;20037;-73
2022/09/13 02:09:40;;;;;;;13.80;5.53;;;;;;;18.46;80.62;100843.84;5230544;28;20053;-73
2022/09/13 02:12:23;;;;;;;5.90;4.93;;;;;;;18.52;82.10;100845.91;5230007;28;20429;-73
2022/09/13 02:15:07;;;;;;;7.53;5.00;;;;;;;18.37;84.13;100854.31;5229783;28;20029;-73
2022/09/13 02:17:45;;;;;;;12.05;5.65;;;;;;;18.42;83.37;100842.44;5231391;28;20029;-73
2022/09/13 02:20:29;;;;;;;9.00;4.90;;;;;;;18.26;85.21;100844.72;5230068;28;20531;-73
2022/09/13 02:23:07;;;;;;;9.10;4.95;;;;;;;18.24;85.39;100849.31;5230884;28;20490;-73
2022/09/13 02:25:40;;;;;;;9.10;5.13;;;;;;;18.16;85.91;100840.41;5229698;28;20029;-73
2022/09/13 02:28:18;;;;;;;9.53;5.10;;;;;;;18.19;87.67;100851.56;5231549;28;20029;-73
2022/09/13 02:30:53;;;;;;;8.87;5.17;;;;;;;18.23;86.63;100844.16;5229603;28;20037;-73
2022/09/13 02:33:29;;;;;;;8.13;5.23;;;;;;;18.16;87.12;100846.56;5231411;28;20032;-73
2022/09/13 02:36:06;;;;;;;5.30;4.60;;;;;;;18.24;85.60;100856.44;5232029;28;20029;-73
2022/09/13 02:38:59;;;;;;;7.13;4.73;;;;;;;18.30;87.25;100860.31;5231751;28;20060;-73
2022/09/13 02:41:46;;;;;;;7.77;5.13;;;;;;;18.17;91.30;100850.84;5232878;28;20029;-73
2022/09/13 02:44:26;;;;;;;6.63;4.77;;;;;;;18.29;86.21;100862.16;5232623;28;20724;-73
2022/09/13 02:47:10;;;;;;;5.93;4.47;;;;;;;18.18;88.99;100870.25;5233285;28;20064;-73
2022/09/13 02:50:05;;;;;;;8.60;5.07;;;;;;;18.34;85.23;100867.03;5232609;28;20029;-73
2022/09/13 02:52:45;;;;;;;;;;;;;;;18.47;83.01;100870.19;5232469;28;20555;-73
2022/09/13 02:55:55;;;;;;;7.67;5.07;;;;;;;18.38;82.27;100871.06;5233395;28;19999;-73
2022/09/13 02:58:51;;;;;;;8.37;5.80;;;;;;;18.40;81.88;100874.41;5233324;28;20373;-74
2022/09/13 03:01:23;;;;;;;10.30;4.77;;;;;;;18.31;81.12;100868.13;5231424;28;20045;-74
2022/09/13 03:03:55;;;;;;;8.40;5.53;;;;;;;18.26;81.77;100870.38;5233412;28;20033;-73
2022/09/13 03:06:28;;;;;;;7.60;4.73;;;;;;;18.24;81.13;100848.47;5232491;28;20060;-73
2022/09/13 03:09:02;;;;;;;10.77;6.17;;;;;;;18.30;81.35;100871.78;5232150;28;20029;-73
2022/09/13 03:11:51;;;;;;;10.00;5.70;;;;;;;18.38;80.77;100865.75;5232220;28;20668;-74
2022/09/13 03:14:34;;;;;;;7.07;5.50;;;;;;;18.31;83.00;100868.13;5234004;28;20028;-74
2022/09/13 03:17:22;;;;;;;5.13;4.63;;;;;;;18.27;81.49;100856.16;5236514;28;20060;-74
2022/09/13 03:20:17;;;;;;;14.57;5.20;;;;;;;18.36;80.67;100860.59;5235703;28;20668;-74
2022/09/13 03:22:55;;;;;;;8.50;5.18;;;;;;;18.23;84.08;100858.25;5235227;28;20021;-74
2022/09/13 03:25:48;;;;;;;7.43;4.43;;;;;;;18.23;85.04;100860.06;5236256;28;20033;-74
2022/09/13 03:28:54;;;;;;;6.57;4.80;;;;;;;18.17;84.07;100842.91;5234224;28;20037;-74
2022/09/13 03:31:35;;;;;;;6.88;4.70;;;;;;;18.17;85.54;100845.56;5236211;28;20021;-74
2022/09/13 03:34:13;;;;;;;7.03;5.33;;;;;;;18.18;85.48;100863.16;5236497;28;20044;-74
2022/09/13 03:36:54;;;;;;;9.93;4.63;;;;;;;18.09;87.07;100848.91;5234417;28;20040;-74
2022/09/13 03:39:39;;;;;;;5.50;4.90;;;;;;;18.07;87.29;100850.84;5234573;28;20032;-74
2022/09/13 03:42:34;;;;;;;10.27;4.97;;;;;;;18.18;86.21;100846.41;5236464;28;20029;-74
2022/09/13 03:45:08;;;;;;;8.07;4.60;;;;;;;18.01;87.74;100851.44;5235458;28;20037;-74
2022/09/13 03:47:42;;;;;;;9.10;5.03;;;;;;;17.90;91.25;100857.72;5235789;28;20404;-74
2022/09/13 03:50:17;;;;;;;;;;;;;;;18.29;84.91;100856.03;5234986;28;20060;-74
2022/09/13 03:52:55;;;;;;;5.45;4.80;;;;;;;18.12;86.82;100853.06;5233230;28;19974;-74
2022/09/13 03:55:29;;;;;;;13.00;5.57;;;;;;;18.12;86.23;100840.66;5234534;28;20072;-73
2022/09/13 03:58:00;;;;;;;6.90;5.03;;;;;;;17.97;87.73;100834.97;5235995;28;20029;-73
2022/09/13 04:00:32;;;;;;;8.83;5.73;;;;;;;18.09;86.96;100838.31;5234950;28;20032;-74
2022/09/13 04:03:03;;;;;;;7.53;6.13;;;;;;;18.13;84.27;100838.84;5235626;28;20033;-73
2022/09/13 04:05:34;;;;;;;7.27;5.30;;;;;;;18.13;84.94;100836.22;5232393;28;20045;-72
2022/09/13 04:08:07;;;;;;;8.90;5.50;;;;;;;18.11;84.26;100846.97;5233024;28;20041;-73
2022/09/13 04:10:39;;;;;;;6.87;5.30;;;;;;;17.96;86.38;100838.59;5234002;28;20040;-73
2022/09/13 04:13:14;;;;;;;11.80;5.60;;;;;;;18.04;83.94;100845.84;5234934;28;20029;-73
2022/09/13 04:15:45;;;;;;;6.43;5.00;;;;;;;17.89;86.67;100854.22;5234921;28;20041;-73
2022/09/13 04:18:17;;;;;;;9.03;5.97;;;;;;;17.84;88.94;100861.75;5234092;28;20037;-74
2022/09/13 04:20:56;;;;;;;9.13;5.30;;;;;;;17.97;89.96;100872.06;5233151;28;20030;-73
2022/09/13 04:23:29;;;;;;;8.50;5.97;;;;;;;17.82;89.13;100866.34;5233471;28;20301;-75
2022/09/13 04:26:04;;;;;;;11.73;6.00;;;;;;;17.69;90.55;100866.63;5236538;28;20036;-75
2022/09/13 04:28:35;;;;;;;6.27;5.67;;;;;;;17.93;88.45;100875.13;5234225;28;20029;-74
2022/09/13 04:31:06;;;;;;;6.93;5.20;;;;;;;17.78;91.03;100879.03;5238416;28;20052;-74
2022/09/13 04:33:37;;;;;;;7.53;5.43;;;;;;;17.74;90.95;100872.34;5235957;28;20090;-74
2022/09/13 04:36:09;;;;;;;10.00;5.10;;;;;;;17.51;91.10;100871.75;5235205;28;20032;-74
2022/09/13 04:38:40;;;;;;;6.47;5.17;;;;;;;17.72;90.32;100899.94;5236442;28;20108;-73
2022/09/13 04:41:12;;;;;;;9.43;5.90;;;;;;;17.58;91.68;100899.38;5234587;28;20030;-73
2022/09/13 04:43:48;;;;;;;8.03;5.40;;;;;;;17.49;95.26;100894.91;5232922;28;20131;-73
2022/09/13 04:46:20;;;;;;;16.87;6.10;;;;;;;17.40;95.64;100892.06;5237299;28;20061;-75
2022/09/13 04:48:51;;;;;;;8.80;5.97;;;;;;;17.36;97.68;100896.00;5234395;28;20076;-73
2022/09/13 04:51:24;;;;;;;10.73;5.67;;;;;;;17.54;96.70;100897.97;5235163;28;20040;-73
2022/09/13 04:53:56;;;;;;;9.97;6.03;;;;;;;17.57;95.76;100887.09;5236483;28;20107;-75
2022/09/13 04:56:27;;;;;;;9.37;5.53;;;;;;;17.39;96.27;100885.13;5233149;28;20029;-75
2022/09/13 04:58:58;;;;;;;7.77;5.27;;;;;;;17.48;96.30;100890.56;5233800;28;20480;-73
2022/09/13 05:01:29;;;;;;;9.40;6.43;;;;;;;17.58;95.62;100894.06;5230999;28;20064;-74
2022/09/13 05:04:01;;;;;;;6.60;5.63;;;;;;;17.56;96.24;100880.13;5232528;28;20416;-73
2022/09/13 05:06:32;;;;;;;8.37;5.53;;;;;;;17.62;94.71;100884.88;5232655;28;20047;-74
2022/09/13 05:09:04;;;;;;;8.63;5.83;;;;;;;17.64;94.75;100882.09;5231868;28;20018;-74
2022/09/13 05:11:35;;;;;;;12.27;6.77;;;;;;;17.63;94.99;100881.25;5232363;28;20021;-74
2022/09/13 05:14:11;;;;;;;8.60;5.27;;;;;;;17.58;95.60;100885.28;5231198;28;20100;-74
2022/09/13 05:16:42;;;;;;;6.67;6.00;;;;;;;17.44;99.81;100887.34;5230114;28;20032;-74
2022/09/13 05:19:13;;;;;;;9.90;6.47;;;;;;;17.38;100.00;100883.47;5233010;28;20030;-73
2022/09/13 05:21:44;;;;;;;9.60;6.27;;;;;;;17.35;100.00;100878.41;5228387;28;20025;-73
2022/09/13 05:24:16;;;;;;;7.23;6.33;;;;;;;17.37;100.00;100887.06;5246044;28;20091;-74
2022/09/13 05:26:47;;;;;;;10.23;6.83;;;;;;;17.51;100.00;100887.63;5232358;28;20017;-74
2022/09/13 05:29:18;;;;;;;8.97;5.90;;;;;;;17.62;100.00;100884.88;5233149;28;20033;-74
2022/09/13 05:31:50;;;;;;;9.13;6.23;;;;;;;17.54;100.00;100893.50;5233709;28;20087;-74
2022/09/13 05:34:21;;;;;;;8.13;6.27;;;;;;;17.58;100.00;100899.38;5230758;28;20029;-73
2022/09/13 05:36:52;;;;;;;11.43;6.83;;;;;;;17.55;100.00;100894.34;5232409;28;20410;-73
2022/09/13 05:39:23;;;;;;;7.53;5.43;;;;;;;17.48;100.00;100894.06;5236369;28;20025;-74
2022/09/13 05:41:55;;;;;;;12.00;7.40;;;;;;;17.41;100.00;100893.78;5253331;28;20032;-74
2022/09/13 05:44:26;;;;;;;8.50;5.87;;;;;;;17.62;100.00;100894.63;5253970;28;20356;-73
2022/09/13 05:46:57;;;;;;;10.67;6.40;;;;;;;17.69;100.00;100901.06;5254250;28;20052;-73
2022/09/13 05:49:28;;;;;;;8.57;5.77;;;;;;;17.54;100.00;100905.91;5253812;28;20025;-74
2022/09/13 05:52:00;;;;;;;10.17;6.30;;;;;;;17.53;100.00;100893.63;5253316;28;20053;-74
2022/09/13 05:54:33;;;;;;;7.47;6.67;;;;;;;17.53;100.00;100883.91;5253008;28;20086;-74
2022/09/13 05:57:04;;;;;;;13.03;6.50;;;;;;;17.60;100.00;100897.41;5233327;28;20059;-73
2022/09/13 05:59:35;;;;;;;13.67;6.90;;;;;;;17.66;100.00;100904.00;5232941;28;20037;-73
2022/09/13 06:02:09;;;;;;;8.67;6.67;;;;;;;17.62;100.00;100906.06;5233211;28;20033;-74
2022/09/13 06:04:40;;;;;;;10.35;6.68;;;;;;;17.54;100.00;100882.09;5232552;28;20121;-73
2022/09/13 06:07:11;;;;;;;8.87;7.90;;;;;;;17.61;100.00;100904.38;5232731;28;20108;-74
2022/09/13 06:09:43;;;;;;;7.83;6.00;;;;;;;17.64;100.00;100893.53;5230693;28;20037;-73
2022/09/13 06:12:14;;;;;;;10.20;6.57;;;;;;;17.81;100.00;100903.56;5232609;28;20084;-74
2022/09/13 06:14:45;;;;;;;10.40;7.27;;;;;;;17.80;100.00;100886.00;5231027;28;20573;-75
2022/09/13 06:17:17;;;;;;;11.30;6.63;;;;;;;17.81;100.00;100892.97;5232397;28;20072;-75
2022/09/13 06:19:48;;;;;;;12.93;7.57;;;;;;;17.74;100.00;100897.97;5233674;28;20029;-76
2022/09/13 06:22:19;;;;;;;11.63;7.97;;;;;;;17.90;100.00;100898.28;5233935;28;20026;-75
2022/09/13 06:24:51;;;;;;;10.73;7.60;;;;;;;17.78;100.00;100894.09;5234208;28;20487;-75
2022/09/13 06:27:22;;;;;;;9.83;8.23;;;;;;;17.76;100.00;100893.38;5238391;28;20384;-75
2022/09/13 06:29:54;;;;;;;9.47;7.57;;;;;;;17.81;100.00;100883.22;5231906;28;20423;-75
2022/09/13 06:32:25;;;;;;;13.43;7.70;;;;;;;17.83;100.00;100886.56;5232201;28;20124;-76
2022/09/13 06:34:56;;;;;;;12.47;7.97;;;;;;;17.88;100.00;100886.16;5230969;28;20025;-76
2022/09/13 06:37:28;;;;;;;19.37;9.10;;;;;;;17.89;100.00;100896.59;5229162;28;20032;-75
2022/09/13 06:39:59;;;;;;;11.70;7.93;;;;;;;17.92;100.00;100879.59;5232517;28;20025;-75
2022/09/13 06:42:33;;;;;;;11.90;7.53;;;;;;;17.96;100.00;100885.47;5230733;28;20032;-75
2022/09/13 06:45:05;;;;;;;14.38;8.88;;;;;;;17.93;100.00;100883.06;5232394;28;20315;-75
2022/09/13 06:47:37;;;;;;;12.40;8.67;;;;;;;18.13;100.00;100891.88;5232147;28;20170;-75
2022/09/13 06:50:08;;;;;;;11.03;7.80;;;;;;;18.20;100.00;100887.72;5223050;28;20863;-74
2022/09/13 06:52:39;;;;;;;11.33;8.37;;;;;;;18.13;100.00;100890.06;5229308;28;20084;-74
2022/09/13 06:55:11;;;;;;;13.67;9.30;;;;;;;18.33;100.00;100898.00;5233101;28;20037;-76
2022/09/13 06:57:42;;;;;;;15.97;9.70;;;;;;;18.39;99.23;100891.31;5234770;28;20030;-75
2022/09/13 07:00:14;;;;;;;20.60;10.30;;;;;;;18.41;97.12;100885.84;5239778;28;20095;-75
2022/09/13 07:02:50;;;;;;;16.80;10.00;;;;;;;18.55;96.22;100893.38;5231603;28;20071;-76
2022/09/13 07:05:21;;;;;;;14.00;8.87;;;;;;;18.48;97.03;100894.91;5232417;28;20765;-76
2022/09/13 07:07:52;;;;;;;15.30;9.07;;;;;;;18.50;96.04;100893.78;5226872;28;20049;-75
2022/09/13 07:10:24;;;;;;;12.33;9.23;;;;;;;18.68;94.58;100894.84;5224041;28;20037;-76
2022/09/13 07:12:55;;;;;;;33.63;27.33;;;;;;;18.77;91.16;100904.59;5233905;28;20022;-76
2022/09/13 07:15:26;;;;;;;53.80;47.90;;;;;;;18.83;90.12;100892.56;5233218;28;20466;-76
2022/09/13 07:17:58;;;;;;;21.90;18.60;;;;;;;18.75;91.68;100890.63;5227786;28;20511;-77
2022/09/13 07:20:29;;;;;;;20.27;15.97;;;;;;;18.89;91.42;100891.13;5230095;28;20507;-77
2022/09/13 07:23:00;;;;;;;25.83;19.67;;;;;;;18.81;91.92;100879.47;5221682;28;20413;-74
2022/09/13 07:25:31;;;;;;;19.97;16.30;;;;;;;19.15;87.69;100901.94;5230481;28;20562;-75
2022/09/13 07:28:03;;;;;;;24.60;14.23;;;;;;;19.08;91.15;100899.03;5235397;28;20041;-72
2022/09/13 07:30:34;;;;;;;32.23;25.67;;;;;;;19.27;86.77;100902.59;5228909;28;20044;-75
2022/09/13 07:33:05;;;;;;;25.43;19.77;;;;;;;19.37;85.09;100899.91;5232868;28;20041;-74
2022/09/13 07:35:36;;;;;;;20.63;13.93;;;;;;;19.42;84.23;100896.78;5227173;28;20029;-74
2022/09/13 07:38:08;;;;;;;17.47;12.43;;;;;;;19.52;83.79;100899.38;5234132;28;20032;-77
2022/09/13 07:40:39;;;;;;;17.30;13.73;;;;;;;19.69;82.72;100900.38;5235058;28;20026;-74
2022/09/13 07:43:10;;;;;;;24.50;16.47;;;;;;;19.85;81.78;100906.81;5237634;28;20100;-75
2022/09/13 07:45:41;;;;;;;17.10;15.40;;;;;;;19.90;83.39;100907.19;5232081;28;20018;-74
2022/09/13 07:48:13;;;;;;;13.63;12.23;;;;;;;19.94;81.97;100905.91;5234980;28;20032;-76
2022/09/13 07:50:55;;;;;;;13.90;12.47;;;;;;;20.39;81.19;100909.47;5236863;28;20029;-79
2022/09/13 07:53:27;;;;;;;15.13;12.33;;;;;;;20.54;79.81;100912.38;5218434;28;20068;-80
2022/09/13 07:56:05;;;;;;;15.90;12.57;;;;;;;20.98;77.24;100920.47;5233743;28;20472;-79
2022/09/13 07:58:38;;;;;;;16.30;13.33;;;;;;;21.14;75.86;100922.34;5234143;28;20032;-84
2022/09/13 08:01:16;;;;;;;21.40;13.10;;;;;;;21.64;74.00;100927.84;5233545;28;20025;-81
2022/09/13 08:03:56;;;;;;;20.00;13.55;;;;;;;21.93;72.98;100931.91;5231621;28;20670;-79
2022/09/13 08:06:29;;;;;;;15.48;13.85;;;;;;;21.80;73.77;100920.91;5234569;28;20073;-79
2022/09/13 08:09:02;;;;;;;19.33;14.18;;;;;;;22.24;71.00;100923.25;5234085;28;20085;-76
2022/09/13 08:11:39;;;;;;;16.77;13.90;;;;;;;22.43;71.71;100931.06;5231411;28;20866;-76
2022/09/13 08:14:13;;;;;;;17.75;15.43;;;;;;;22.87;69.25;100924.47;5234474;28;20036;-74
2022/09/13 08:16:44;;;;;;;20.73;14.60;;;;;;;23.57;66.99;100929.19;5233794;28;20026;-76
2022/09/13 08:19:17;;;;;;;23.55;15.73;;;;;;;24.07;63.87;100920.00;5231065;28;20026;-74
2022/09/13 08:21:48;;;;;;;18.25;15.10;;;;;;;24.17;62.80;100920.56;5232365;28;20457;-75
2022/09/13 08:24:21;;;;;;;19.38;15.20;;;;;;;24.31;63.87;100927.00;5233827;28;20064;-76
2022/09/13 08:26:54;;;;;;;18.98;15.65;;;;;;;24.48;62.41;100916.13;5233095;28;20029;-75
2022/09/13 08:29:25;;;;;;;23.38;15.50;;;;;;;25.23;60.25;100920.63;5231172;28;20454;-78
2022/09/13 08:31:56;;;;;;;18.00;16.10;;;;;;;25.09;59.88;100938.41;5232755;28;20125;-78
2022/09/13 08:34:27;;;;;;;19.27;16.65;;;;;;;25.62;58.39;100946.22;5226900;28;20029;-74
2022/09/13 08:36:59;;;;;;;21.58;15.95;;;;;;;25.73;58.42;100944.91;5229525;28;20033;-74
2022/09/13 08:39:30;;;;;;;21.65;17.00;;;;;;;25.49;58.04;100938.88;5231049;28;20022;-73
2022/09/13 08:42:43;;;;;;;19.33;17.15;;;;;;;25.47;59.99;100946.28;5233557;28;20029;-73
2022/09/13 08:45:15;;;;;;;19.15;16.17;;;;;;;25.75;58.36;100942.06;5193598;28;20145;-74
2022/09/13 08:47:48;;;;;;;18.50;16.05;;;;;;;26.03;58.93;100954.69;5229479;28;20124;-74
2022/09/13 08:50:24;;;;;;;21.02;16.33;;;;;;;26.80;56.33;100945.13;5229804;28;20468;-75
2022/09/13 08:53:14;;;;;;;18.63;16.77;;;;;;;27.35;54.46;100949.75;5232191;28;20764;-75
2022/09/13 08:56:09;;;;;;;20.70;16.95;;;;;;;28.34;54.78;100939.53;5233658;28;20100;-76
2022/09/13 08:59:16;;;;;;;19.45;16.60;;;;;;;28.60;54.32;100945.94;5231662;28;20034;-74
2022/09/13 09:01:53;;;;;;;19.40;15.52;;;;;;;28.93;50.17;100939.63;5230925;28;20468;-75
2022/09/13 09:04:27;;;;;;;18.33;16.02;;;;;;;29.25;48.23;100938.91;5229640;28;20034;-74
2022/09/13 09:07:09;;;;;;;17.90;16.00;;;;;;;29.41;49.39;100926.75;5227733;28;20045;-76
2022/09/13 09:09:49;;;;;;;19.00;16.08;;;;;;;29.54;46.80;100930.41;5228704;28;20495;-76
2022/09/13 09:12:27;;;;;;;17.65;15.75;;;;;;;29.41;48.09;100929.44;5231579;28;20029;-77
2022/09/13 09:15:07;;;;;;;16.48;14.93;;;;;;;29.37;47.31;100914.75;5232599;28;20039;-75
2022/09/13 09:17:54;;;;;;;17.08;15.00;;;;;;;28.99;49.19;100917.22;5229656;28;20029;-76
2022/09/13 09:20:45;;;;;;;18.20;14.20;;;;;;;29.15;49.19;100919.66;5226548;28;20018;-74
2022/09/13 09:23:19;;;;;;;17.95;14.52;;;;;;;28.85;47.43;100923.69;5240968;28;20025;-76
2022/09/13 09:25:55;;;;;;;16.63;14.98;;;;;;;27.92;49.76;100921.75;5232960;28;20112;-76
2022/09/13 09:28:30;;;;;;;17.38;15.32;;;;;;;28.81;47.19;100911.69;5231898;28;20040;-76
2022/09/13 09:31:11;;;;;;;18.13;16.40;;;;;;;29.02;48.81;100923.22;5230222;28;20022;-76
2022/09/13 09:34:07;;;;;;;17.10;15.20;;;;;;;29.39;47.55;100915.38;5232246;28;20021;-75
2022/09/13 09:36:39;;;;;;;19.80;15.40;;;;;;;29.97;45.63;100928.88;5240485;28;20060;-75
2022/09/13 09:39:14;;;;;;;18.42;15.38;;;;;;;29.40;47.24;100917.03;5231684;28;20025;-73
2022/09/13 09:41:46;;;;;;;18.13;16.15;;;;;;;29.44;46.35;100926.34;5230445;28;20024;-75
2022/09/13 09:44:26;;;;;;;18.17;14.98;;;;;;;29.98;45.31;100935.09;5230023;28;20033;-73
2022/09/13 09:47:10;;;;;;;20.50;14.50;;;;;;;30.55;45.39;100913.41;5231330;28;20056;-75
2022/09/13 09:52:41;;;;;;;16.50;13.95;;;;;;;30.42;44.38;100919.75;5231150;28;20777;-75
2022/09/13 09:55:21;;;;;;;16.05;14.43;;;;;;;30.93;44.02;100915.28;5233217;28;20463;-73
2022/09/13 09:57:59;;;;;;;17.17;13.32;;;;;;;30.81;43.60;100907.91;5232393;28;20104;-75
2022/09/13 10:00:36;;;;;;;16.48;14.07;;;;;;;31.09;43.97;100917.34;5229849;28;20030;-76
2022/09/13 10:03:17;;;;;;;14.10;12.23;;;;;;;31.81;43.49;100917.59;5229387;28;20851;-76
2022/09/13 10:05:48;;;;;;;13.63;12.32;;;;;;;31.05;42.64;100921.59;5227826;28;20043;-76
2022/09/13 10:08:30;;;;;;;16.30;12.05;;;;;;;31.66;42.89;100914.50;5229476;28;20069;-73
2022/09/13 10:11:03;;;;;;;14.02;10.52;;;;;;;31.28;42.86;100912.72;5228515;28;20029;-77
2022/09/13 10:13:35;;;;;;;16.13;11.98;;;;;;;31.22;42.10;100920.94;5245851;28;20031;-74
2022/09/13 10:16:28;;;;;;;12.43;11.10;;;;;;;32.87;41.35;100916.94;5231573;28;20460;-75
2022/09/13 10:19:23;;;;;;;19.15;13.07;;;;;;;32.63;41.41;100916.16;5231912;28;20026;-76
2022/09/13 10:22:00;;;;;;;13.07;11.57;;;;;;;32.02;41.42;100912.69;5218172;28;20581;-76
2022/09/13 10:24:32;;;;;;;12.57;11.27;;;;;;;32.97;38.91;100908.19;5233234;28;20017;-75
2022/09/13 10:27:17;;;;;;;12.25;10.85;;;;;;;32.80;39.82;100922.50;5236037;28;20026;-77
2022/09/13 10:29:54;;;;;;;11.15;8.80;;;;;;;32.34;40.67;100912.28;5233964;28;20036;-77
2022/09/13 10:32:27;;;;;;;11.23;9.85;;;;;;;31.87;40.63;100913.94;5234501;28;20117;-76
2022/09/13 10:35:15;;;;;;;12.30;9.68;;;;;;;31.18;42.55;100917.03;5230121;28;20029;-76
2022/09/13 10:37:46;;;;;;;15.35;10.55;;;;;;;30.11;43.86;100915.28;5234437;28;20029;-78
2022/09/13 10:40:32;;;;;;;13.23;11.85;;;;;;;30.90;43.58;100903.03;5232523;28;20022;-76
2022/09/13 10:43:14;;;;;;;14.15;11.52;;;;;;;30.12;44.51;100915.06;5235246;28;20068;-78
2022/09/13 10:45:49;;;;;;;11.82;10.63;;;;;;;30.25;44.21;100900.63;5235438;28;20037;-78
2022/09/13 10:48:20;;;;;;;13.48;11.77;;;;;;;29.29;45.67;100907.75;5234322;28;20034;-77
2022/09/13 10:51:07;;;;;;;12.27;11.02;;;;;;;29.64;46.08;100909.19;5232578;28;20427;-78
2022/09/13 10:53:41;;;;;;;13.70;10.63;;;;;;;29.27;47.36;100917.09;5243738;28;20021;-77
2022/09/13 10:56:21;;;;;;;14.20;9.60;;;;;;;29.67;45.52;100908.75;5234213;28;20034;-74
2022/09/13 10:59:29;;;;;;;11.48;9.20;;;;;;;29.37;47.06;100903.97;5234518;28;20129;-75
2022/09/13 11:02:21;;;;;;;13.45;9.65;;;;;;;29.00;47.59;100888.41;5213461;28;20541;-76
2022/09/13 11:05:08;;;;;;;12.98;8.57;;;;;;;28.60;49.22;100894.75;5229602;28;20087;-75
2022/09/13 11:08:11;;;;;;;9.20;8.25;;;;;;;28.44;49.79;100886.09;5233554;28;20087;-77
2022/09/13 11:11:24;;;;;;;10.25;8.48;;;;;;;28.39;50.46;100888.59;5231650;28;20033;-76
2022/09/13 11:14:41;;;;;;;11.63;9.68;;;;;;;28.50;49.94;100874.47;5237616;28;20033;-76
2022/09/13 11:17:18;;;;;;;11.05;8.88;;;;;;;28.25;51.04;100877.81;5232878;28;20049;-76
2022/09/13 11:20:08;;;;;;;11.82;9.35;;;;;;;28.26;51.43;100876.78;5232494;28;20049;-76
2022/09/13 11:23:01;;;;;;;11.65;9.30;;;;;;;28.14;52.15;100873.06;5230664;28;20083;-77
2022/09/13 11:25:42;;;;;;;10.80;9.60;;;;;;;28.66;51.31;100872.34;5219443;28;20029;-76
2022/09/13 11:28:27;;;;;;;15.50;10.15;;;;;;;28.63;51.11;100864.69;5235427;28;20500;-73
2022/09/13 11:31:23;;;;;;;13.27;8.30;;;;;;;28.82;50.42;100867.50;5232821;28;20116;-75
2022/09/13 11:34:22;;;;;;;13.35;8.95;;;;;;;29.17;49.18;100877.09;5233272;28;20033;-77
2022/09/13 11:37:12;;;;;;;11.25;9.05;;;;;;;28.58;49.04;100877.97;5245452;28;20033;-76
2022/09/13 11:40:00;;;;;;;9.80;8.32;;;;;;;28.57;49.66;100870.94;5230260;28;20037;-74
2022/09/13 11:42:49;;;;;;;8.90;7.68;;;;;;;28.80;48.72;100864.22;5232698;28;20840;-76
2022/09/13 11:45:39;;;;;;;8.52;7.45;;;;;;;28.75;49.42;100862.16;5233588;28;20033;-76
2022/09/13 11:48:32;;;;;;;13.43;7.78;;;;;;;28.67;48.33;100874.00;5234582;28;20095;-75
2022/09/13 11:51:31;;;;;;;13.00;8.48;;;;;;;28.61;47.89;100864.91;5242944;28;20064;-75
2022/09/13 11:54:20;;;;;;;7.82;6.05;;;;;;;28.38;49.61;100870.78;5238040;28;20534;-75
2022/09/13 11:57:07;;;;;;;8.05;5.65;;;;;;;28.44;48.41;100864.53;5233607;28;20029;-74
2022/09/13 12:00:17;;;;;;;6.75;5.20;;;;;;;28.77;48.10;100867.31;5229036;28;20061;-76
2022/09/13 12:03:05;;;;;;;11.77;6.18;;;;;;;28.33;49.33;100862.50;5229867;28;20056;-76
2022/09/13 12:05:44;;;;;;;10.48;5.70;;;;;;;28.16;50.22;100854.84;5234020;28;20130;-74
2022/09/13 12:08:31;;;;;;;9.52;6.60;;;;;;;28.21;50.80;100865.81;5231220;28;20034;-76
2022/09/13 12:11:12;;;;;;;12.65;7.80;;;;;;;28.49;49.50;100861.22;5230476;28;20116;-76